sensor_id;sensor_type;location;lat;lon;timestamp;pressure;altitude;pressure_sealevel;temperature;humidity
63090;BME280;49174;43.198;27.824;2023-04-28T00:02:16;101812.84;;;9.03;61.52
63090;BME280;49174;43.198;27.824;2023-04-28T00:04:42;101818.41;;;9.10;60.88
63090;BME280;49174;43.198;27.824;2023-04-28T00:07:08;101811.47;;;8.99;61.73
63090;BME280;49174;43.198;27.824;2023-04-28T00:09:33;101816.31;;;8.95;62.89
63090;BME280;49174;43.198;27.824;2023-04-28T00:11:59;101807.56;;;8.93;61.15
63090;BME280;49174;43.198;27.824;2023-04-28T00:14:24;101810.94;;;8.95;61.86
63090;BME280;49174;43.198;27.824;2023-04-28T00:16:50;101805.69;;;8.94;62.75
63090;BME280;49174;43.198;27.824;2023-04-28T00:19:16;101805.88;;;8.92;63.10
63090;BME280;49174;43.198;27.824;2023-04-28T00:21:41;101808.56;;;8.92;63.01
63090;BME280;49174;43.198;27.824;2023-04-28T00:24:07;101807.88;;;8.90;62.86
63090;BME280;49174;43.198;27.824;2023-04-28T00:26:32;101816.31;;;8.95;61.62
63090;BME280;49174;43.198;27.824;2023-04-28T00:28:58;101823.28;;;9.06;60.11
63090;BME280;49174;43.198;27.824;2023-04-28T00:31:23;101823.09;;;9.08;61.13
63090;BME280;49174;43.198;27.824;2023-04-28T00:33:49;101812.84;;;9.03;62.29
63090;BME280;49174;43.198;27.824;2023-04-28T00:36:15;101829.09;;;8.93;64.29
63090;BME280;49174;43.198;27.824;2023-04-28T00:38:41;101830.09;;;8.92;64.50
63090;BME280;49174;43.198;27.824;2023-04-28T00:41:09;101815.25;;;8.88;63.02
63090;BME280;49174;43.198;27.824;2023-04-28T00:43:48;101825.31;;;8.78;63.94
63090;BME280;49174;43.198;27.824;2023-04-28T00:46:20;101819.25;;;8.76;64.39
63090;BME280;49174;43.198;27.824;2023-04-28T00:48:47;101821.94;;;8.76;64.30
63090;BME280;49174;43.198;27.824;2023-04-28T00:51:13;101821.94;;;8.76;64.61
63090;BME280;49174;43.198;27.824;2023-04-28T00:53:39;101831.34;;;8.80;64.04
63090;BME280;49174;43.198;27.824;2023-04-28T00:56:06;101819.75;;;8.80;64.69
63090;BME280;49174;43.198;27.824;2023-04-28T00:58:33;101826.47;;;8.76;64.96
63090;BME280;49174;43.198;27.824;2023-04-28T01:01:06;101827.31;;;8.76;63.46
63090;BME280;49174;43.198;27.824;2023-04-28T01:03:37;101838.41;;;8.73;63.53
63090;BME280;49174;43.198;27.824;2023-04-28T01:06:04;101834.31;;;8.69;64.92
63090;BME280;49174;43.198;27.824;2023-04-28T01:08:31;101832.25;;;8.63;65.14
63090;BME280;49174;43.198;27.824;2023-04-28T01:10:57;101836.72;;;8.72;64.33
63090;BME280;49174;43.198;27.824;2023-04-28T01:13:23;101840.50;;;8.61;64.75
63090;BME280;49174;43.198;27.824;2023-04-28T01:15:48;101834.50;;;8.49;64.98
63090;BME280;49174;43.198;27.824;2023-04-28T01:18:15;101848.97;;;8.48;65.76
63090;BME280;49174;43.198;27.824;2023-04-28T01:20:41;101827.06;;;8.43;65.69
63090;BME280;49174;43.198;27.824;2023-04-28T01:23:13;101836.03;;;8.52;64.40
63090;BME280;49174;43.198;27.824;2023-04-28T01:25:40;101826.16;;;8.53;64.48
63090;BME280;49174;43.198;27.824;2023-04-28T01:28:06;101830.84;;;8.50;64.91
63090;BME280;49174;43.198;27.824;2023-04-28T01:30:32;101824.22;;;8.27;65.26
63090;BME280;49174;43.198;27.824;2023-04-28T01:32:57;101832.34;;;8.35;64.91
63090;BME280;49174;43.198;27.824;2023-04-28T01:35:23;101824.84;;;8.21;66.80
63090;BME280;49174;43.198;27.824;2023-04-28T01:37:48;101826.22;;;8.25;66.02
63090;BME280;49174;43.198;27.824;2023-04-28T01:40:14;101824.31;;;8.17;64.92
63090;BME280;49174;43.198;27.824;2023-04-28T01:42:41;101838.34;;;8.29;65.94
63090;BME280;49174;43.198;27.824;2023-04-28T01:45:07;101828.38;;;8.21;65.70
63090;BME280;49174;43.198;27.824;2023-04-28T01:47:33;101832.13;;;8.11;67.31
63090;BME280;49174;43.198;27.824;2023-04-28T01:49:59;101832.38;;;7.99;66.18
63090;BME280;49174;43.198;27.824;2023-04-28T01:52:24;101827.69;;;8.01;66.46
63090;BME280;49174;43.198;27.824;2023-04-28T01:54:51;101834.78;;;8.02;67.47
63090;BME280;49174;43.198;27.824;2023-04-28T01:57:17;101831.59;;;8.07;65.83
63090;BME280;49174;43.198;27.824;2023-04-28T01:59:42;101826.75;;;8.11;64.83
63090;BME280;49174;43.198;27.824;2023-04-28T02:02:08;101830.84;;;7.97;66.10
63090;BME280;49174;43.198;27.824;2023-04-28T02:04:33;101831.69;;;7.97;65.73
63090;BME280;49174;43.198;27.824;2023-04-28T02:06:59;101818.41;;;7.96;64.95
63090;BME280;49174;43.198;27.824;2023-04-28T02:09:24;101817.16;;;7.90;66.84
63090;BME280;49174;43.198;27.824;2023-04-28T02:11:50;101820.38;;;7.94;66.23
63090;BME280;49174;43.198;27.824;2023-04-28T02:14:15;101819.09;;;7.98;65.09
63090;BME280;49174;43.198;27.824;2023-04-28T02:16:41;101829.97;;;7.96;64.83
63090;BME280;49174;43.198;27.824;2023-04-28T02:19:06;101824.38;;;7.90;65.96
63090;BME280;49174;43.198;27.824;2023-04-28T02:21:32;101839.19;;;7.94;65.48
63090;BME280;49174;43.198;27.824;2023-04-28T02:23:57;101841.34;;;7.90;65.79
63090;BME280;49174;43.198;27.824;2023-04-28T02:26:23;101849.63;;;7.79;66.25
63090;BME280;49174;43.198;27.824;2023-04-28T02:28:50;101845.19;;;7.70;66.35
63090;BME280;49174;43.198;27.824;2023-04-28T02:31:16;101839.00;;;7.59;67.12
63090;BME280;49174;43.198;27.824;2023-04-28T02:33:42;101848.16;;;7.67;66.58
63090;BME280;49174;43.198;27.824;2023-04-28T02:36:11;101853.94;;;7.72;65.52
63090;BME280;49174;43.198;27.824;2023-04-28T02:38:36;101844.44;;;7.50;67.08
63090;BME280;49174;43.198;27.824;2023-04-28T02:41:05;101849.50;;;7.53;67.71
63090;BME280;49174;43.198;27.824;2023-04-28T02:43:31;101854.88;;;7.53;67.28
63090;BME280;49174;43.198;27.824;2023-04-28T02:45:57;101854.91;;;7.43;67.92
63090;BME280;49174;43.198;27.824;2023-04-28T02:48:23;101870.25;;;7.33;67.83
63090;BME280;49174;43.198;27.824;2023-04-28T02:50:50;101862.63;;;7.28;67.41
63090;BME280;49174;43.198;27.824;2023-04-28T02:53:20;101873.50;;;7.27;67.80
63090;BME280;49174;43.198;27.824;2023-04-28T02:55:46;101872.66;;;7.26;67.70
63090;BME280;49174;43.198;27.824;2023-04-28T02:58:11;101872.41;;;7.20;67.27
63090;BME280;49174;43.198;27.824;2023-04-28T03:00:37;101874.81;;;7.13;67.64
63090;BME280;49174;43.198;27.824;2023-04-28T03:03:04;101872.91;;;7.05;67.78
63090;BME280;49174;43.198;27.824;2023-04-28T03:05:29;101879.53;;;7.01;68.21
63090;BME280;49174;43.198;27.824;2023-04-28T03:07:55;101878.81;;;6.99;68.85
63090;BME280;49174;43.198;27.824;2023-04-28T03:10:21;101877.56;;;6.93;68.14
63090;BME280;49174;43.198;27.824;2023-04-28T03:12:46;101877.72;;;6.82;69.50
63090;BME280;49174;43.198;27.824;2023-04-28T03:15:12;101879.31;;;6.75;70.12
63090;BME280;49174;43.198;27.824;2023-04-28T03:17:37;101881.56;;;6.80;69.10
63090;BME280;49174;43.198;27.824;2023-04-28T03:20:07;101888.22;;;6.76;69.55
63090;BME280;49174;43.198;27.824;2023-04-28T03:22:33;101890.19;;;6.74;70.03
63090;BME280;49174;43.198;27.824;2023-04-28T03:24:59;101892.16;;;6.81;69.58
63090;BME280;49174;43.198;27.824;2023-04-28T03:27:25;101890.31;;;6.82;69.59
63090;BME280;49174;43.198;27.824;2023-04-28T03:29:50;101896.69;;;6.81;69.35
63090;BME280;49174;43.198;27.824;2023-04-28T03:32:16;101906.84;;;6.77;69.92
63090;BME280;49174;43.198;27.824;2023-04-28T03:34:41;101911.22;;;6.78;70.95
63090;BME280;49174;43.198;27.824;2023-04-28T03:37:07;101912.75;;;6.71;70.60
63090;BME280;49174;43.198;27.824;2023-04-28T03:39:33;101914.59;;;6.70;70.86
63090;BME280;49174;43.198;27.824;2023-04-28T03:41:58;101915.19;;;6.64;70.88
63090;BME280;49174;43.198;27.824;2023-04-28T03:44:24;101922.53;;;6.72;70.14
63090;BME280;49174;43.198;27.824;2023-04-28T03:46:49;101918.56;;;6.76;69.11
63090;BME280;49174;43.198;27.824;2023-04-28T03:49:15;101917.13;;;6.82;69.75
63090;BME280;49174;43.198;27.824;2023-04-28T03:51:40;101925.19;;;6.82;69.26
63090;BME280;49174;43.198;27.824;2023-04-28T03:54:06;101927.75;;;6.83;69.53
63090;BME280;49174;43.198;27.824;2023-04-28T03:56:33;101935.63;;;6.85;69.39
63090;BME280;49174;43.198;27.824;2023-04-28T03:58:58;101939.72;;;6.89;69.08
63090;BME280;49174;43.198;27.824;2023-04-28T04:01:25;101935.91;;;6.82;70.32
63090;BME280;49174;43.198;27.824;2023-04-28T04:03:51;101945.25;;;6.78;69.07
63090;BME280;49174;43.198;27.824;2023-04-28T04:06:16;101940.16;;;6.75;68.74
63090;BME280;49174;43.198;27.824;2023-04-28T04:08:42;101934.09;;;6.72;68.59
63090;BME280;49174;43.198;27.824;2023-04-28T04:11:08;101941.41;;;6.90;68.49
63090;BME280;49174;43.198;27.824;2023-04-28T04:13:33;101938.00;;;6.98;67.91
63090;BME280;49174;43.198;27.824;2023-04-28T04:15:59;101938.28;;;7.04;68.59
63090;BME280;49174;43.198;27.824;2023-04-28T04:18:25;101926.28;;;7.08;67.92
63090;BME280;49174;43.198;27.824;2023-04-28T04:20:51;101930.63;;;7.09;67.67
63090;BME280;49174;43.198;27.824;2023-04-28T04:23:18;101938.53;;;7.21;66.43
63090;BME280;49174;43.198;27.824;2023-04-28T04:25:44;101938.22;;;7.24;65.87
63090;BME280;49174;43.198;27.824;2023-04-28T04:28:09;101942.47;;;7.26;65.39
63090;BME280;49174;43.198;27.824;2023-04-28T04:30:35;101945.44;;;7.33;66.06
63090;BME280;49174;43.198;27.824;2023-04-28T04:33:01;101946.94;;;7.45;66.64
63090;BME280;49174;43.198;27.824;2023-04-28T04:35:26;101948.41;;;7.57;66.59
63090;BME280;49174;43.198;27.824;2023-04-28T04:37:52;101954.66;;;7.58;65.96
63090;BME280;49174;43.198;27.824;2023-04-28T04:40:17;101951.69;;;7.61;65.93
63090;BME280;49174;43.198;27.824;2023-04-28T04:42:43;101946.75;;;7.56;65.88
63090;BME280;49174;43.198;27.824;2023-04-28T04:45:09;101950.84;;;7.60;65.55
63090;BME280;49174;43.198;27.824;2023-04-28T04:47:35;101951.53;;;7.63;66.31
63090;BME280;49174;43.198;27.824;2023-04-28T04:50:00;101960.28;;;7.65;65.99
63090;BME280;49174;43.198;27.824;2023-04-28T04:52:26;101959.56;;;7.72;66.18
63090;BME280;49174;43.198;27.824;2023-04-28T04:54:51;101956.97;;;7.80;66.89
63090;BME280;49174;43.198;27.824;2023-04-28T04:57:17;101959.47;;;7.92;66.22
63090;BME280;49174;43.198;27.824;2023-04-28T04:59:43;101952.44;;;8.09;65.92
63090;BME280;49174;43.198;27.824;2023-04-28T05:02:08;101952.84;;;8.32;64.70
63090;BME280;49174;43.198;27.824;2023-04-28T05:04:35;101947.78;;;8.46;61.80
63090;BME280;49174;43.198;27.824;2023-04-28T05:07:00;101949.34;;;8.67;59.39
63090;BME280;49174;43.198;27.824;2023-04-28T05:09:26;101948.78;;;8.81;57.73
63090;BME280;49174;43.198;27.824;2023-04-28T05:11:52;101951.06;;;8.94;56.95
63090;BME280;49174;43.198;27.824;2023-04-28T05:14:17;101953.66;;;9.04;57.36
63090;BME280;49174;43.198;27.824;2023-04-28T05:16:43;101954.44;;;9.14;58.27
63090;BME280;49174;43.198;27.824;2023-04-28T05:19:08;101964.75;;;9.27;57.17
63090;BME280;49174;43.198;27.824;2023-04-28T05:21:34;101960.25;;;9.35;56.02
63090;BME280;49174;43.198;27.824;2023-04-28T05:24:00;101967.69;;;9.42;55.33
63090;BME280;49174;43.198;27.824;2023-04-28T05:26:26;101965.38;;;9.47;55.46
63090;BME280;49174;43.198;27.824;2023-04-28T05:28:51;101969.81;;;9.56;55.51
63090;BME280;49174;43.198;27.824;2023-04-28T05:31:17;101958.44;;;9.70;54.44
63090;BME280;49174;43.198;27.824;2023-04-28T05:33:42;101957.09;;;9.74;55.62
63090;BME280;49174;43.198;27.824;2023-04-28T05:36:09;101969.31;;;9.87;53.63
63090;BME280;49174;43.198;27.824;2023-04-28T05:38:35;101960.56;;;9.93;55.07
63090;BME280;49174;43.198;27.824;2023-04-28T05:41:01;101961.94;;;10.05;54.28
63090;BME280;49174;43.198;27.824;2023-04-28T05:43:26;101950.66;;;10.10;52.95
63090;BME280;49174;43.198;27.824;2023-04-28T05:45:52;101963.00;;;10.20;54.35
63090;BME280;49174;43.198;27.824;2023-04-28T05:48:18;101963.72;;;10.31;52.87
63090;BME280;49174;43.198;27.824;2023-04-28T05:50:44;101958.69;;;10.44;54.06
63090;BME280;49174;43.198;27.824;2023-04-28T05:53:10;101963.13;;;10.53;52.42
63090;BME280;49174;43.198;27.824;2023-04-28T05:55:35;101967.50;;;10.62;52.79
63090;BME280;49174;43.198;27.824;2023-04-28T05:58:02;101966.81;;;10.77;53.09
63090;BME280;49174;43.198;27.824;2023-04-28T06:00:28;101958.06;;;10.91;49.77
63090;BME280;49174;43.198;27.824;2023-04-28T06:02:53;101958.53;;;11.03;52.47
63090;BME280;49174;43.198;27.824;2023-04-28T06:05:19;101956.38;;;11.06;49.78
63090;BME280;49174;43.198;27.824;2023-04-28T06:07:45;101966.81;;;11.26;50.58
63090;BME280;49174;43.198;27.824;2023-04-28T06:10:10;101963.72;;;11.45;49.50
63090;BME280;49174;43.198;27.824;2023-04-28T06:12:37;101963.19;;;11.50;49.08
63090;BME280;49174;43.198;27.824;2023-04-28T06:15:04;101956.75;;;11.59;48.14
63090;BME280;49174;43.198;27.824;2023-04-28T06:17:30;101962.41;;;11.80;47.66
63090;BME280;49174;43.198;27.824;2023-04-28T06:19:56;101956.50;;;11.93;47.90
63090;BME280;49174;43.198;27.824;2023-04-28T06:22:26;101961.81;;;12.10;46.79
63090;BME280;49174;43.198;27.824;2023-04-28T06:24:52;101972.19;;;12.29;45.98
63090;BME280;49174;43.198;27.824;2023-04-28T06:27:17;101963.97;;;12.45;45.55
63090;BME280;49174;43.198;27.824;2023-04-28T06:29:43;101959.28;;;12.62;44.93
63090;BME280;49174;43.198;27.824;2023-04-28T06:32:09;101968.84;;;12.73;46.08
63090;BME280;49174;43.198;27.824;2023-04-28T06:34:36;101967.13;;;12.95;43.77
63090;BME280;49174;43.198;27.824;2023-04-28T06:37:02;101970.28;;;13.07;43.39
63090;BME280;49174;43.198;27.824;2023-04-28T06:39:29;101966.75;;;13.21;42.61
63090;BME280;49174;43.198;27.824;2023-04-28T06:41:54;101973.13;;;13.28;42.12
63090;BME280;49174;43.198;27.824;2023-04-28T06:44:20;101965.00;;;13.28;41.70
63090;BME280;49174;43.198;27.824;2023-04-28T06:46:45;101972.28;;;13.43;40.81
63090;BME280;49174;43.198;27.824;2023-04-28T06:49:11;101961.00;;;13.54;40.93
63090;BME280;49174;43.198;27.824;2023-04-28T06:51:36;101961.09;;;13.60;40.76
63090;BME280;49174;43.198;27.824;2023-04-28T06:54:02;101961.75;;;13.62;40.16
63090;BME280;49174;43.198;27.824;2023-04-28T06:56:28;101958.19;;;13.77;40.91
63090;BME280;49174;43.198;27.824;2023-04-28T06:58:54;101970.69;;;13.93;39.98
63090;BME280;49174;43.198;27.824;2023-04-28T07:01:21;101968.47;;;13.81;38.92
63090;BME280;49174;43.198;27.824;2023-04-28T07:03:47;101965.19;;;13.86;39.69
63090;BME280;49174;43.198;27.824;2023-04-28T07:06:12;101954.97;;;14.03;38.47
63090;BME280;49174;43.198;27.824;2023-04-28T07:08:38;101959.00;;;14.07;38.53
63090;BME280;49174;43.198;27.824;2023-04-28T07:11:04;101965.78;;;14.33;39.49
63090;BME280;49174;43.198;27.824;2023-04-28T07:13:31;101961.13;;;14.48;39.25
63090;BME280;49174;43.198;27.824;2023-04-28T07:15:57;101961.28;;;14.61;38.34
63090;BME280;49174;43.198;27.824;2023-04-28T07:18:23;101957.88;;;14.74;38.26
63090;BME280;49174;43.198;27.824;2023-04-28T07:20:49;101953.66;;;14.71;38.04
63090;BME280;49174;43.198;27.824;2023-04-28T07:23:14;101946.25;;;14.87;38.61
63090;BME280;49174;43.198;27.824;2023-04-28T07:25:40;101946.78;;;14.97;38.83
63090;BME280;49174;43.198;27.824;2023-04-28T07:28:06;101959.44;;;15.11;37.99
63090;BME280;49174;43.198;27.824;2023-04-28T07:30:32;101950.63;;;15.09;36.94
63090;BME280;49174;43.198;27.824;2023-04-28T07:32:59;101948.41;;;15.19;38.37
63090;BME280;49174;43.198;27.824;2023-04-28T07:35:25;101951.63;;;15.30;37.13
63090;BME280;49174;43.198;27.824;2023-04-28T07:37:51;101946.09;;;15.16;35.47
63090;BME280;49174;43.198;27.824;2023-04-28T07:40:17;101945.28;;;15.23;36.41
63090;BME280;49174;43.198;27.824;2023-04-28T07:42:44;101951.00;;;15.34;35.61
63090;BME280;49174;43.198;27.824;2023-04-28T07:45:10;101951.28;;;15.11;36.87
63090;BME280;49174;43.198;27.824;2023-04-28T07:47:36;101942.53;;;14.88;35.91
63090;BME280;49174;43.198;27.824;2023-04-28T07:50:02;101955.19;;;14.81;35.99
63090;BME280;49174;43.198;27.824;2023-04-28T07:52:30;101942.88;;;14.85;36.30
63090;BME280;49174;43.198;27.824;2023-04-28T07:54:56;101946.88;;;14.82;35.29
63090;BME280;49174;43.198;27.824;2023-04-28T07:57:21;101945.94;;;14.96;36.60
63090;BME280;49174;43.198;27.824;2023-04-28T07:59:47;101942.63;;;15.01;35.31
63090;BME280;49174;43.198;27.824;2023-04-28T08:02:13;101938.88;;;15.02;35.50
63090;BME280;49174;43.198;27.824;2023-04-28T08:04:39;101929.13;;;15.14;35.79
63090;BME280;49174;43.198;27.824;2023-04-28T08:07:05;101933.84;;;15.34;35.86
63090;BME280;49174;43.198;27.824;2023-04-28T08:09:30;101931.63;;;15.44;35.33
63090;BME280;49174;43.198;27.824;2023-04-28T08:11:56;101921.25;;;15.61;35.38
63090;BME280;49174;43.198;27.824;2023-04-28T08:14:23;101915.53;;;15.84;35.22
63090;BME280;49174;43.198;27.824;2023-04-28T08:16:49;101917.31;;;16.18;35.61
63090;BME280;49174;43.198;27.824;2023-04-28T08:19:16;101918.25;;;16.59;33.54
63090;BME280;49174;43.198;27.824;2023-04-28T08:21:42;101926.19;;;16.47;32.96
63090;BME280;49174;43.198;27.824;2023-04-28T08:24:08;101921.88;;;16.04;33.99
63090;BME280;49174;43.198;27.824;2023-04-28T08:26:36;101912.94;;;16.24;33.89
63090;BME280;49174;43.198;27.824;2023-04-28T08:29:02;101906.25;;;16.33;33.17
63090;BME280;49174;43.198;27.824;2023-04-28T08:31:27;101910.47;;;16.56;34.02
63090;BME280;49174;43.198;27.824;2023-04-28T08:33:53;101904.84;;;16.90;34.50
63090;BME280;49174;43.198;27.824;2023-04-28T08:36:18;101907.34;;;16.98;34.79
63090;BME280;49174;43.198;27.824;2023-04-28T08:38:45;101899.81;;;16.87;32.57
63090;BME280;49174;43.198;27.824;2023-04-28T08:41:15;101913.63;;;16.52;34.65
63090;BME280;49174;43.198;27.824;2023-04-28T08:43:41;101912.13;;;16.43;32.86
63090;BME280;49174;43.198;27.824;2023-04-28T08:46:08;101906.09;;;16.61;32.32
63090;BME280;49174;43.198;27.824;2023-04-28T08:48:41;101905.66;;;16.71;31.61
63090;BME280;49174;43.198;27.824;2023-04-28T08:51:15;101899.41;;;16.84;33.30
63090;BME280;49174;43.198;27.824;2023-04-28T08:53:53;101902.94;;;16.91;31.82
63090;BME280;49174;43.198;27.824;2023-04-28T08:56:20;101897.09;;;17.14;32.49
63090;BME280;49174;43.198;27.824;2023-04-28T08:58:50;101900.63;;;17.28;33.07
63090;BME280;49174;43.198;27.824;2023-04-28T09:01:16;101886.69;;;17.56;32.91
63090;BME280;49174;43.198;27.824;2023-04-28T09:03:42;101882.81;;;17.83;31.76
63090;BME280;49174;43.198;27.824;2023-04-28T09:06:07;101874.16;;;17.93;32.52
63090;BME280;49174;43.198;27.824;2023-04-28T09:08:33;101883.28;;;17.67;32.27
63090;BME280;49174;43.198;27.824;2023-04-28T09:11:09;101875.34;;;17.59;32.84
63090;BME280;49174;43.198;27.824;2023-04-28T09:13:35;101872.31;;;17.87;31.79
63090;BME280;49174;43.198;27.824;2023-04-28T09:16:02;101875.03;;;17.87;32.08
63090;BME280;49174;43.198;27.824;2023-04-28T09:18:29;101884.94;;;17.81;31.49
63090;BME280;49174;43.198;27.824;2023-04-28T09:21:07;101879.97;;;17.52;30.83
63090;BME280;49174;43.198;27.824;2023-04-28T09:23:35;101877.25;;;17.52;31.18
63090;BME280;49174;43.198;27.824;2023-04-28T09:26:10;101871.22;;;17.36;31.73
63090;BME280;49174;43.198;27.824;2023-04-28T09:28:36;101885.53;;;17.25;32.63
63090;BME280;49174;43.198;27.824;2023-04-28T09:31:02;101876.53;;;17.11;32.09
63090;BME280;49174;43.198;27.824;2023-04-28T09:33:28;101885.56;;;16.98;32.20
63090;BME280;49174;43.198;27.824;2023-04-28T09:35:54;101881.28;;;17.29;31.93
63090;BME280;49174;43.198;27.824;2023-04-28T09:38:21;101877.16;;;17.07;30.92
63090;BME280;49174;43.198;27.824;2023-04-28T09:40:51;101881.59;;;16.81;32.36
63090;BME280;49174;43.198;27.824;2023-04-28T09:43:33;101883.25;;;16.82;31.19
63090;BME280;49174;43.198;27.824;2023-04-28T09:46:03;101868.13;;;17.13;30.96
63090;BME280;49174;43.198;27.824;2023-04-28T09:48:36;101862.84;;;17.31;32.65
63090;BME280;49174;43.198;27.824;2023-04-28T09:51:06;101863.94;;;17.17;31.27
63090;BME280;49174;43.198;27.824;2023-04-28T09:53:33;101876.34;;;16.86;30.69
63090;BME280;49174;43.198;27.824;2023-04-28T09:56:02;101869.97;;;17.26;31.71
63090;BME280;49174;43.198;27.824;2023-04-28T09:58:28;101861.66;;;17.65;30.95
63090;BME280;49174;43.198;27.824;2023-04-28T10:00:56;101852.72;;;17.45;28.87
63090;BME280;49174;43.198;27.824;2023-04-28T10:03:23;101859.66;;;17.41;30.29
63090;BME280;49174;43.198;27.824;2023-04-28T10:05:50;101855.56;;;17.70;31.09
63090;BME280;49174;43.198;27.824;2023-04-28T10:08:18;101853.69;;;18.09;29.56
63090;BME280;49174;43.198;27.824;2023-04-28T10:10:45;101844.16;;;18.50;29.71
63090;BME280;49174;43.198;27.824;2023-04-28T10:13:17;101840.63;;;18.93;29.15
63090;BME280;49174;43.198;27.824;2023-04-28T10:15:47;101836.91;;;18.62;29.44
63090;BME280;49174;43.198;27.824;2023-04-28T10:18:13;101851.13;;;18.71;30.25
63090;BME280;49174;43.198;27.824;2023-04-28T10:20:49;101851.84;;;18.85;29.60
63090;BME280;49174;43.198;27.824;2023-04-28T10:26:18;101853.38;;;18.81;29.19
63090;BME280;49174;43.198;27.824;2023-04-28T10:28:49;101840.97;;;18.53;29.94
63090;BME280;49174;43.198;27.824;2023-04-28T10:31:18;101847.63;;;18.89;29.98
63090;BME280;49174;43.198;27.824;2023-04-28T10:33:45;101841.78;;;19.04;28.70
63090;BME280;49174;43.198;27.824;2023-04-28T10:36:50;101847.63;;;19.44;29.59
63090;BME280;49174;43.198;27.824;2023-04-28T10:39:20;101842.25;;;19.19;29.93
63090;BME280;49174;43.198;27.824;2023-04-28T10:41:46;101835.78;;;19.32;29.82
63090;BME280;49174;43.198;27.824;2023-04-28T10:47:07;101842.25;;;18.50;29.01
63090;BME280;49174;43.198;27.824;2023-04-28T10:55:27;101839.25;;;18.84;30.29
63090;BME280;49174;43.198;27.824;2023-04-28T11:00:40;101831.97;;;18.46;29.18
63090;BME280;49174;43.198;27.824;2023-04-28T11:03:06;101842.84;;;18.27;28.47
63090;BME280;49174;43.198;27.824;2023-04-28T11:05:32;101848.56;;;18.51;28.21
63090;BME280;49174;43.198;27.824;2023-04-28T11:08:30;101835.34;;;18.73;28.68
63090;BME280;49174;43.198;27.824;2023-04-28T11:13:36;101833.22;;;18.50;29.22
63090;BME280;49174;43.198;27.824;2023-04-28T11:16:05;101824.53;;;18.85;28.45
63090;BME280;49174;43.198;27.824;2023-04-28T11:18:53;101839.09;;;18.79;28.26
63090;BME280;49174;43.198;27.824;2023-04-28T11:21:21;101833.78;;;18.59;28.18
63090;BME280;49174;43.198;27.824;2023-04-28T11:23:47;101827.41;;;18.90;28.51
63090;BME280;49174;43.198;27.824;2023-04-28T11:26:14;101832.22;;;18.94;29.08
63090;BME280;49174;43.198;27.824;2023-04-28T11:28:47;101829.78;;;19.23;28.59
63090;BME280;49174;43.198;27.824;2023-04-28T11:31:14;101836.88;;;19.31;27.19
63090;BME280;49174;43.198;27.824;2023-04-28T11:34:04;101831.22;;;19.07;27.46
63090;BME280;49174;43.198;27.824;2023-04-28T11:36:32;101831.09;;;18.77;28.11
63090;BME280;49174;43.198;27.824;2023-04-28T11:39:00;101831.63;;;18.36;28.45
63090;BME280;49174;43.198;27.824;2023-04-28T11:41:25;101833.88;;;18.20;28.48
63090;BME280;49174;43.198;27.824;2023-04-28T11:43:52;101822.56;;;18.67;29.15
63090;BME280;49174;43.198;27.824;2023-04-28T11:46:19;101814.97;;;19.12;29.07
63090;BME280;49174;43.198;27.824;2023-04-28T11:48:46;101826.34;;;19.46;27.84
63090;BME280;49174;43.198;27.824;2023-04-28T11:51:31;101822.22;;;19.74;28.09
63090;BME280;49174;43.198;27.824;2023-04-28T11:53:58;101829.72;;;19.48;27.66
63090;BME280;49174;43.198;27.824;2023-04-28T11:56:23;101818.03;;;19.23;27.96
63090;BME280;49174;43.198;27.824;2023-04-28T11:59:03;101815.28;;;19.23;28.37
63090;BME280;49174;43.198;27.824;2023-04-28T12:01:29;101826.44;;;19.21;28.53
63090;BME280;49174;43.198;27.824;2023-04-28T12:03:54;101831.47;;;19.06;28.59
63090;BME280;49174;43.198;27.824;2023-04-28T12:06:20;101832.91;;;19.27;28.17
63090;BME280;49174;43.198;27.824;2023-04-28T12:08:46;101817.00;;;19.54;28.11
63090;BME280;49174;43.198;27.824;2023-04-28T12:11:12;101816.56;;;19.87;27.85
63090;BME280;49174;43.198;27.824;2023-04-28T12:13:38;101818.00;;;20.20;28.28
63090;BME280;49174;43.198;27.824;2023-04-28T12:16:07;101812.09;;;20.04;27.90
63090;BME280;49174;43.198;27.824;2023-04-28T12:18:36;101805.72;;;19.62;28.39
63090;BME280;49174;43.198;27.824;2023-04-28T12:21:03;101816.13;;;19.23;27.02
63090;BME280;49174;43.198;27.824;2023-04-28T12:25:56;101789.66;;;18.98;28.69
63090;BME280;49174;43.198;27.824;2023-04-28T12:28:23;101803.34;;;18.73;28.02
63090;BME280;49174;43.198;27.824;2023-04-28T12:30:49;101794.56;;;18.46;28.59
63090;BME280;49174;43.198;27.824;2023-04-28T12:33:25;101800.00;;;18.53;28.16
63090;BME280;49174;43.198;27.824;2023-04-28T12:35:52;101790.13;;;18.95;28.90
63090;BME280;49174;43.198;27.824;2023-04-28T12:38:19;101788.19;;;19.33;27.52
63090;BME280;49174;43.198;27.824;2023-04-28T12:40:44;101784.56;;;18.84;29.60
63090;BME280;49174;43.198;27.824;2023-04-28T12:43:10;101787.25;;;18.15;28.91
63090;BME280;49174;43.198;27.824;2023-04-28T12:45:36;101800.88;;;17.90;29.20
63090;BME280;49174;43.198;27.824;2023-04-28T12:48:03;101789.41;;;17.68;30.16
63090;BME280;49174;43.198;27.824;2023-04-28T12:50:28;101802.34;;;17.93;29.52
63090;BME280;49174;43.198;27.824;2023-04-28T12:52:57;101792.63;;;18.28;28.79
63090;BME280;49174;43.198;27.824;2023-04-28T12:55:23;101793.06;;;18.25;29.44
63090;BME280;49174;43.198;27.824;2023-04-28T12:57:49;101795.72;;;18.07;29.52
63090;BME280;49174;43.198;27.824;2023-04-28T13:00:14;101797.06;;;17.98;30.49
63090;BME280;49174;43.198;27.824;2023-04-28T13:02:41;101803.97;;;18.00;29.72
63090;BME280;49174;43.198;27.824;2023-04-28T13:05:07;101792.56;;;18.35;29.25